Latest Weather Observations for Kadina

IDS60801

Issued at 4:02 pm CDT Friday 27 February 2015 (issued every 30 minutes, with the page automatically refreshed every 10 minutes)

About weather observations | Map of weather stations | Latest weather observations for SA | Other Formats
Station Details ID: 022050 Name: KADINA AWS Lat: -33.97 Lon: 137.66 Height: 41.14 m
Data from the previous 72 hours. | See also: Recent months at Kadina
Date/Time
CDT
Temp
°C
App
Temp
°C
Dew
Point
Rel
Hum
%
Delta-T
°C
Wind Press
QNH
hPa
Press
MSL
hPa
Rain
since 9 am
mm
Dir
 
Spd
km/h
Gust
km/h
Spd
kts
Gust
kts
27/04:00pm 36.7 33.1 8.5 18 16.1 N 17 26 9 14 1005.4 - 0.0
27/03:30pm 37.2 33.0 8.1 17 16.6 N 20 28 11 15 1005.9 - 0.0
27/03:00pm 35.3 31.1 8.2 19 15.3 N 20 28 11 15 1006.2 1005.9 0.0
27/02:30pm 35.5 30.4 7.5 18 15.6 N 24 33 13 18 1006.8 - 0.0
27/02:00pm 34.8 30.9 9.3 21 14.6 N 20 28 11 15 1007.2 - 0.0
27/01:30pm 33.8 29.4 9.1 22 14.0 N 22 30 12 16 1007.7 - 0.0
27/01:00pm 33.8 30.0 9.8 23 13.8 N 20 28 11 15 1007.9 - 0.0
27/12:30pm 33.1 28.4 9.2 23 13.6 N 24 33 13 18 1008.4 - 0.0
27/12:00pm 32.4 28.6 9.9 25 12.9 N 20 28 11 15 1008.9 1008.6 0.0
27/11:30am 32.2 28.7 10.3 26 12.6 NNW 19 26 10 14 1009.2 - 0.0
27/11:00am 31.8 27.6 11.0 28 12.1 N 24 32 13 17 1009.5 - 0.0
27/10:30am 31.8 28.5 11.0 28 12.1 N 19 26 10 14 1009.4 - 0.0
27/10:00am 29.9 27.0 10.9 31 10.9 NNE 17 22 9 12 1009.6 - 0.0
27/09:30am 28.0 26.0 11.5 35 9.5 NE 13 17 7 9 1009.7 - 0.0
27/09:00am 25.2 24.4 12.8 46 7.2 E 9 11 5 6 1009.8 1009.5 0.0
27/08:30am 22.8 21.4 13.3 55 5.5 E 13 17 7 9 1009.7 - 0.0
27/08:00am 19.6 18.8 14.0 70 3.2 ESE 11 13 6 7 1009.5 - 0.0
27/07:30am 16.5 15.3 14.0 85 1.4 E 13 13 7 7 1009.2 - 0.0
27/07:00am 15.4 14.3 13.1 86 1.3 E 11 13 6 7 1009.2 - 0.0
27/06:30am 15.8 14.6 14.0 89 1.0 ESE 13 17 7 9 1008.9 - 0.0
27/06:00am 15.6 14.5 13.1 85 1.4 SE 11 13 6 7 1009.1 1008.8 0.0
27/05:30am 17.1 17.1 14.2 83 1.7 SE 7 11 4 6 1009.1 - 0.0
27/05:00am 17.8 17.2 14.5 81 1.9 E 11 13 6 7 1008.7 - 0.0
27/04:30am 17.9 16.6 14.8 82 1.8 ESE 15 17 8 9 1008.5 - 0.0
27/04:00am 18.5 17.1 14.4 77 2.4 ESE 15 17 8 9 1009.0 - 0.0
27/03:30am 19.5 17.1 14.3 72 3.0 SE 20 24 11 13 1009.2 - 0.0
27/03:00am 18.4 15.9 11.2 63 3.9 ESE 15 17 8 9 1009.4 1009.1 0.0
27/02:30am 19.4 16.2 9.9 54 5.1 ESE 17 20 9 11 1009.5 - 0.0
27/02:00am 20.0 16.2 7.7 45 6.3 E 17 20 9 11 1009.7 - 0.0
27/01:30am 20.2 15.7 4.3 35 7.7 ESE 17 17 9 9 1010.0 - 0.0
27/01:00am 20.5 16.0 4.1 34 7.9 ESE 17 19 9 10 1010.2 - 0.0
27/12:30am 20.5 16.1 4.5 35 7.8 SE 17 20 9 11 1010.7 - 0.0
27/12:00am 20.0 15.6 4.5 36 7.5 ESE 17 19 9 10 1010.8 1010.5 0.0
 
Date/Time
CDT
Temp
°C
App
Temp
°C
Dew
Point
Rel
Hum
%
Delta-T
°C
Wind Press
QNH
hPa
Press
MSL
hPa
Rain
since 9 am
mm
Dir
 
Spd
km/h
Gust
km/h
Spd
kts
Gust
kts
26/11:30pm 20.6 16.5 4.2 34 7.9 ESE 15 17 8 9 1011.0 - 0.0
26/11:00pm 20.6 16.1 2.0 29 8.6 ESE 15 17 8 9 1011.2 - 0.0
26/10:30pm 21.3 16.6 1.0 26 9.3 ESE 15 17 8 9 1011.4 - 0.0
26/10:00pm 22.1 17.4 0.6 24 9.8 ESE 15 17 8 9 1011.2 - 0.0
26/09:30pm 22.9 18.3 1.3 24 10.0 ESE 15 17 8 9 1011.0 - 0.0
26/09:00pm 23.9 21.3 4.3 28 9.7 SSE 7 9 4 5 1011.0 1010.7 0.0
26/08:30pm 25.9 22.2 6.5 29 10.1 SE 15 22 8 12 1010.6 - 0.0
26/08:00pm 27.8 24.0 7.6 28 10.9 SE 17 20 9 11 1010.4 - 0.0
26/07:30pm 30.1 26.0 7.9 25 12.1 SE 19 26 10 14 1009.9 - 0.0
26/07:00pm 31.3 26.9 8.9 25 12.5 SE 22 30 12 16 1009.6 - 0.0
26/06:30pm 32.2 27.8 9.1 24 13.0 S 22 32 12 17 1009.5 - 0.0
26/06:00pm 32.0 27.3 7.6 22 13.4 SSW 22 32 12 17 1009.4 1009.1 0.0
26/05:30pm 32.0 26.7 7.0 21 13.6 SSW 24 33 13 18 1009.4 - 0.0
26/05:00pm 31.0 26.4 9.8 27 12.0 SW 24 33 13 18 1009.6 - 0.0
26/04:30pm 30.1 25.4 10.6 30 11.2 SW 26 32 14 17 1009.7 - 0.0
26/04:00pm 29.6 24.5 10.7 31 10.8 WSW 28 33 15 18 1010.0 - 0.0
26/03:30pm 28.8 24.1 10.5 32 10.4 WSW 26 33 14 18 1010.2 - 0.0
26/03:00pm 30.6 26.7 9.5 27 11.9 WSW 20 28 11 15 1010.4 1010.1 0.0
26/02:30pm 29.6 25.6 9.2 28 11.4 WSW 20 28 11 15 1010.7 - 0.0
26/02:00pm 29.6 24.5 7.5 25 12.0 WSW 24 32 13 17 1011.1 - 0.0
26/01:30pm 31.6 27.2 6.6 21 13.5 WSW 19 28 10 15 1011.2 - 0.0
26/01:00pm 30.1 26.4 6.1 22 12.7 WSW 15 24 8 13 1011.7 - 0.0
26/12:30pm 29.5 25.2 6.8 24 12.2 SW 19 24 10 13 1012.1 - 0.0
26/12:00pm 29.9 25.5 6.5 23 12.5 SW 19 28 10 15 1012.7 1012.4 0.0
26/11:30am 29.2 25.4 1.7 17 13.5 S 11 20 6 11 1013.0 - 0.0
26/11:00am 28.0 23.9 4.3 22 12.1 S 15 20 8 11 1013.2 - 0.0
26/10:30am 27.9 25.3 6.1 25 11.4 S 9 15 5 8 1013.4 - 0.0
26/10:00am 26.3 24.4 7.4 30 10.0 ESE 7 13 4 7 1013.3 - 0.0
26/09:30am 24.2 22.7 9.0 38 8.2 ESE 7 13 4 7 1013.2 - 0.0
26/09:00am 22.3 21.2 13.1 56 5.3 ESE 11 15 6 8 1013.1 1012.8 0.0
26/08:30am 19.6 18.1 13.1 66 3.7 ESE 13 15 7 8 1012.9 - 0.0
26/08:00am 16.2 15.3 12.6 79 2.0 ESE 9 11 5 6 1012.7 - 0.0
26/07:30am 12.7 10.9 10.8 88 1.0 SSE 11 13 6 7 1012.5 - 0.0
26/07:00am 12.0 10.2 9.4 84 1.3 E 9 9 5 5 1011.8 - 0.0
26/06:30am 12.2 10.1 9.9 86 1.2 ENE 11 11 6 6 1011.5 - 0.0
26/06:00am 13.4 12.4 10.2 81 1.7 ESE 6 9 3 5 1011.3 1011.0 0.0
26/05:30am 13.5 11.7 11.0 85 1.3 S 11 15 6 8 1011.6 - 0.0
26/05:00am 12.0 9.6 8.7 80 1.6 SSE 11 13 6 7 1011.5 - 0.0
26/04:30am 12.3 9.5 8.4 77 1.9 ESE 13 15 7 8 1011.1 - 0.0
26/04:00am 12.3 9.7 7.6 73 2.3 E 11 13 6 7 1011.2 - 0.0
26/03:30am 11.6 8.5 5.5 66 2.8 ESE 11 13 6 7 1011.3 - 0.0
26/03:00am 12.7 10.1 6.1 64 3.1 E 9 11 5 6 1011.3 1011.0 0.0
26/02:30am 12.9 10.2 5.8 62 3.3 ESE 9 11 5 6 1011.8 - 0.0
26/02:00am 12.8 10.6 6.2 64 3.1 ESE 7 9 4 5 1012.1 - 0.0
26/01:30am 13.7 11.4 5.8 59 3.7 SE 7 9 4 5 1012.0 - 0.0
26/01:00am 14.0 11.3 5.6 57 4.0 SE 9 11 5 6 1012.6 - 0.0
26/12:30am 13.9 10.6 4.8 54 4.2 ESE 11 13 6 7 1012.5 - 0.0
26/12:00am 14.2 11.3 4.8 53 4.4 ESE 9 13 5 7 1012.9 1012.6 0.0
 
Date/Time
CDT
Temp
°C
App
Temp
°C
Dew
Point
Rel
Hum
%
Delta-T
°C
Wind Press
QNH
hPa
Press
MSL
hPa
Rain
since 9 am
mm
Dir
 
Spd
km/h
Gust
km/h
Spd
kts
Gust
kts
25/11:30pm 15.6 13.3 5.5 51 4.8 SSE 7 11 4 6 1013.6 - 0.0
25/11:00pm 16.0 12.5 5.6 50 5.0 SSE 13 13 7 7 1013.6 - 0.0
25/10:30pm 16.0 13.4 5.9 51 4.9 SSE 9 13 5 7 1013.6 - 0.0
25/10:00pm 15.7 12.4 4.7 48 5.2 SE 11 13 6 7 1013.6 - 0.0
25/09:30pm 17.4 13.8 5.0 44 5.9 SSE 13 13 7 7 1013.4 - 0.0
25/09:00pm 18.1 14.3 5.7 44 6.1 S 15 17 8 9 1013.4 1013.1 0.0
25/08:30pm 21.1 17.8 6.2 38 7.5 SSE 13 17 7 9 1013.0 - 0.0
25/08:00pm 23.2 20.2 10.6 45 7.0 S 17 20 9 11 1012.5 - 0.0
25/07:30pm 25.0 20.8 8.1 34 9.0 SSW 20 26 11 14 1012.3 - 0.0
25/07:00pm 26.7 21.9 5.6 26 10.9 SSW 20 26 11 14 1012.1 - 0.0
25/06:30pm 27.1 22.8 7.0 28 10.7 SSW 19 26 10 14 1011.9 - 0.0
25/06:00pm 26.8 22.3 10.1 35 9.3 WSW 24 30 13 16 1011.9 1011.6 0.0
25/05:30pm 26.3 21.8 10.0 36 9.1 SW 24 32 13 17 1012.0 - 0.0
25/05:00pm 26.9 21.8 10.6 36 9.2 SW 28 35 15 19 1012.2 - 0.0
25/04:30pm 27.1 22.2 9.9 34 9.6 WSW 26 35 14 19 1012.3 - 0.0
25/04:00pm 26.5 20.6 7.5 30 10.1 WSW 28 35 15 19 1012.6 - 0.0
25/03:30pm 27.5 23.1 8.9 31 10.2 WSW 22 28 12 15 1012.6 - 0.0
25/03:00pm 26.7 22.9 9.1 33 9.7 WSW 19 26 10 14 1012.9 1012.6 0.0
25/02:30pm 26.3 22.3 8.3 32 9.7 WSW 19 30 10 16 1013.6 - 0.0
25/02:00pm 27.6 23.7 8.5 30 10.4 WSW 19 26 10 14 1013.7 - 0.0
25/01:30pm 26.6 22.7 8.6 32 9.8 W 19 28 10 15 1014.3 - 0.0
25/01:00pm 26.0 22.2 7.6 31 9.8 W 17 24 9 13 1015.0 - 0.0
25/12:30pm 27.6 24.1 3.3 21 12.1 SSW 11 15 6 8 1015.5 - 0.0
25/12:00pm 27.3 24.7 4.4 23 11.6 SE 7 15 4 8 1015.7 1015.5 0.0
25/11:30am 25.4 22.9 4.5 26 10.5 E 7 13 4 7 1016.3 - 0.0
25/11:00am 24.3 21.6 5.6 30 9.5 E 9 15 5 8 1016.6 - 0.0
25/10:30am 22.6 19.5 5.5 33 8.6 ENE 11 17 6 9 1016.8 - 0.0
25/10:00am 21.8 17.7 6.1 36 7.9 ENE 17 20 9 11 1017.0 - 0.0
25/09:30am 20.5 16.2 6.8 41 7.0 E 19 26 10 14 1016.9 - 0.0
25/09:00am 19.1 14.7 7.2 46 6.0 E 20 26 11 14 1016.9 1016.7 0.0
25/08:30am 17.3 12.3 7.9 54 4.8 ESE 24 32 13 17 1016.9 - 0.0
25/08:00am 15.4 11.0 8.9 65 3.3 ESE 22 28 12 15 1016.9 - 0.0
25/07:30am 13.1 9.1 9.2 77 2.0 ESE 20 26 11 14 1016.3 - 0.0
25/07:00am 12.0 8.0 9.0 82 1.5 ESE 20 22 11 12 1016.1 - 0.0
25/06:30am 12.1 8.2 9.3 83 1.4 ESE 20 24 11 13 1016.1 - 0.0
25/06:00am 12.1 8.4 9.5 84 1.3 ESE 19 20 10 11 1015.9 1015.7 0.0
25/05:30am 12.6 9.0 9.8 83 1.4 E 19 22 10 12 1015.7 - 0.0
25/05:00am 12.9 9.4 10.1 83 1.4 E 19 22 10 12 1015.8 - 0.0
25/04:30am 13.4 10.2 11.1 86 1.2 ESE 19 22 10 12 1015.9 - 0.0
25/04:00am 13.5 10.6 11.0 85 1.3 ESE 17 20 9 11 1016.0 - 0.0
25/03:30am 14.7 11.4 11.7 82 1.6 ESE 20 24 11 13 1016.1 - 0.0
25/03:00am 15.1 11.5 11.9 81 1.7 ESE 22 28 12 15 1016.4 1016.2 0.0
25/02:30am 15.3 11.7 11.7 79 1.9 SE 22 28 12 15 1016.9 - 0.0
25/02:00am 15.2 11.4 11.2 77 2.1 ESE 22 28 12 15 1016.9 - 0.0
25/01:30am 15.5 11.3 11.1 75 2.4 ESE 24 30 13 16 1017.1 - 0.0
25/01:00am 15.5 11.7 11.1 75 2.4 SE 22 30 12 16 1017.5 - 0.0
25/12:30am 15.8 12.0 11.2 74 2.5 SE 22 32 12 17 1017.9 - 0.0
25/12:00am 16.1 11.6 11.3 73 2.6 SE 26 35 14 19 1018.0 1017.8 0.0
 
Date/Time
CDT
Temp
°C
App
Temp
°C
Dew
Point
Rel
Hum
%
Delta-T
°C
Wind Press
QNH
hPa
Press
MSL
hPa
Rain
since 9 am
mm
Dir
 
Spd
km/h
Gust
km/h
Spd
kts
Gust
kts
24/11:30pm 16.3 11.6 10.8 70 2.9 SE 26 37 14 20 1018.3 - 0.0
24/11:00pm 16.6 12.4 11.1 70 3.0 SE 24 30 13 16 1018.8 - 0.0
24/10:30pm 16.4 12.9 10.9 70 2.9 SSE 20 30 11 16 1018.8 - 0.0
24/10:00pm 16.5 12.5 10.4 67 3.2 SSE 22 30 12 16 1018.8 - 0.0
24/09:30pm 16.5 11.6 9.9 65 3.5 SSE 26 35 14 19 1018.8 - 0.0
24/09:00pm 16.9 11.5 9.6 62 3.8 SSE 28 37 15 20 1019.0 1018.8 0.0
24/08:30pm 17.4 11.9 9.3 59 4.2 SSE 28 39 15 21 1018.8 - 0.0
24/08:00pm 18.4 12.5 9.2 55 4.8 SSE 30 41 16 22 1018.6 - 0.0
24/07:30pm 20.0 14.1 9.0 49 5.8 SSE 30 41 16 22 1018.4 - 0.0
24/07:00pm 21.4 15.7 8.3 43 6.9 SSE 28 39 15 21 1018.2 - 0.0
24/06:30pm 22.6 17.1 7.6 38 7.8 SSE 26 33 14 18 1018.2 - 0.0
24/06:00pm 24.0 18.6 6.3 32 9.1 SE 24 32 13 17 1018.1 1017.9 0.0
24/05:30pm 24.0 18.9 5.8 31 9.3 SSE 22 32 12 17 1018.0 - 0.0
24/05:00pm 24.2 17.9 5.5 30 9.5 SE 28 44 15 24 1018.1 - 0.0
24/04:30pm 25.1 19.8 4.8 27 10.2 SSE 22 35 12 19 1018.2 - 0.0

Other Formats:

Comma delimited format used in spreadsheet applications
http://www.bom.gov.au/fwo/IDS60801/IDS60801.94685.axf

JavaScript Object Notation format (JSON) in row-major order
http://www.bom.gov.au/fwo/IDS60801/IDS60801.94685.json